createdAt,value
2023-01-25T00:02:01.991Z,53.00
2023-01-25T00:04:33.117Z,51.40
2023-01-25T00:07:02.782Z,51.60
2023-01-25T00:09:33.267Z,50.20
2023-01-25T00:12:02.847Z,50.40
2023-01-25T00:14:33.283Z,48.00
2023-01-25T00:17:03.155Z,48.40
2023-01-25T00:19:33.081Z,48.00
2023-01-25T00:22:02.565Z,47.20
2023-01-25T00:24:32.154Z,47.80
2023-01-25T00:27:01.989Z,46.60
2023-01-25T00:29:31.687Z,46.20
2023-01-25T00:32:01.263Z,45.70
2023-01-25T00:34:31.611Z,45.80
2023-01-25T00:37:04.658Z,47.30
2023-01-25T00:39:35.009Z,47.10
2023-01-25T00:42:04.609Z,47.60
2023-01-25T00:44:34.622Z,46.70
2023-01-25T00:47:05.639Z,46.10
2023-01-25T00:49:36.440Z,44.60
2023-01-25T00:52:06.100Z,42.60
2023-01-25T00:54:35.620Z,42.50
2023-01-25T00:57:05.049Z,43.10
2023-01-25T00:59:34.699Z,43.30
2023-01-25T01:02:06.318Z,44.30
2023-01-25T01:04:36.166Z,42.90
2023-01-25T01:07:07.254Z,40.60
2023-01-25T01:09:38.205Z,42.00
2023-01-25T01:12:08.249Z,41.70
2023-01-25T01:14:39.279Z,42.20
2023-01-25T01:17:09.542Z,43.30
2023-01-25T01:19:39.837Z,43.40
2023-01-25T01:22:11.859Z,43.50
2023-01-25T01:24:41.678Z,42.90
2023-01-25T01:27:11.347Z,42.70
2023-01-25T01:29:42.498Z,41.10
2023-01-25T01:32:12.531Z,42.00
2023-01-25T01:34:42.803Z,41.60
2023-01-25T01:37:14.368Z,40.80
2023-01-25T01:39:44.302Z,40.50
2023-01-25T01:42:14.468Z,40.40
2023-01-25T01:44:48.504Z,40.00
2023-01-25T01:47:21.190Z,40.50
2023-01-25T01:49:55.777Z,40.10
2023-01-25T01:52:33.848Z,39.70
2023-01-25T01:55:12.430Z,39.80
2023-01-25T01:57:46.907Z,39.50
2023-01-25T02:00:19.077Z,37.80
2023-01-25T02:02:50.072Z,35.40
2023-01-25T02:05:28.925Z,36.00
2023-01-25T02:08:00.021Z,35.20
2023-01-25T02:10:30.572Z,35.40
2023-01-25T02:13:01.070Z,36.20
2023-01-25T02:15:32.669Z,35.60
2023-01-25T02:18:02.361Z,35.20
2023-01-25T02:20:32.000Z,35.40
2023-01-25T02:23:04.033Z,36.00
2023-01-25T06:45:14.427Z,34.20
2023-01-25T06:47:45.152Z,33.40
2023-01-25T06:50:14.711Z,33.60
2023-01-25T06:52:44.115Z,32.90
2023-01-25T06:55:15.969Z,34.00
2023-01-25T06:57:45.388Z,33.90
2023-01-25T07:00:15.599Z,33.70
2023-01-25T07:02:45.069Z,33.40
2023-01-25T07:05:14.533Z,33.70
2023-01-25T07:07:47.271Z,33.80
2023-01-25T07:10:16.747Z,33.40
2023-01-25T07:12:46.156Z,33.80
2023-01-25T07:15:15.743Z,34.40
2023-01-25T07:17:45.119Z,33.90
2023-01-25T07:20:14.607Z,33.80
2023-01-25T07:22:44.011Z,34.40
2023-01-25T07:25:13.806Z,33.90
2023-01-25T07:27:43.645Z,34.50
2023-01-25T07:30:13.408Z,33.70
2023-01-25T07:32:42.794Z,33.80
2023-01-25T07:35:12.223Z,33.80
2023-01-25T07:37:41.654Z,34.40
2023-01-25T07:40:11.364Z,34.10
2023-01-25T07:42:40.932Z,34.20
2023-01-25T07:45:11.168Z,34.00
2023-01-25T07:47:41.191Z,34.60
2023-01-25T07:50:11.107Z,34.20
2023-01-25T07:52:40.518Z,34.10
2023-01-25T07:55:10.343Z,34.40
2023-01-25T07:57:39.964Z,34.40
2023-01-25T08:00:12.595Z,34.90
2023-01-25T08:02:42.307Z,34.60
2023-01-25T08:05:12.256Z,34.10
2023-01-25T08:07:42.887Z,34.90
2023-01-25T08:10:12.698Z,34.80
2023-01-25T08:12:42.535Z,34.80
2023-01-25T08:15:12.324Z,34.90
2023-01-25T08:17:42.415Z,35.30
2023-01-25T08:20:12.163Z,35.20
2023-01-25T08:22:41.552Z,35.20
2023-01-25T08:25:11.351Z,35.60
2023-01-25T08:27:40.785Z,35.40
2023-01-25T08:30:11.634Z,35.80
2023-01-25T08:32:41.100Z,36.10
2023-01-25T08:35:11.568Z,35.80
2023-01-25T08:37:41.118Z,35.70
2023-01-25T08:40:12.307Z,35.70
2023-01-25T09:02:38.797Z,37.40
2023-01-25T09:05:08.819Z,38.50
2023-01-25T09:07:40.229Z,38.20
2023-01-25T09:10:10.823Z,37.90
2023-01-25T09:12:41.767Z,39.10
2023-01-25T09:15:11.558Z,39.10
2023-01-25T09:17:41.366Z,40.40
2023-01-25T09:20:11.430Z,40.90
2023-01-25T09:22:42.395Z,41.80
2023-01-25T09:25:12.217Z,41.60
2023-01-25T09:27:45.645Z,41.90
2023-01-25T09:30:37.232Z,42.40
2023-01-25T09:33:20.282Z,42.70
2023-01-25T09:35:51.332Z,43.90
2023-01-25T09:38:22.389Z,45.20
2023-01-25T09:41:02.076Z,45.30
2023-01-25T09:43:50.716Z,45.30
2023-01-25T09:46:28.929Z,45.90
2023-01-25T09:49:08.699Z,45.10
2023-01-25T09:51:52.128Z,45.10
2023-01-25T09:54:26.004Z,45.30
2023-01-25T09:56:58.300Z,45.80
2023-01-25T09:59:39.399Z,45.70
2023-01-25T10:02:23.783Z,46.70
2023-01-25T10:04:59.887Z,47.90
2023-01-25T10:07:59.106Z,47.50
2023-01-25T10:10:39.014Z,48.30
2023-01-25T10:13:15.236Z,48.40
2023-01-25T10:15:49.312Z,47.90
2023-01-25T10:18:39.728Z,48.20
2023-01-25T10:21:15.778Z,48.30
2023-01-25T10:23:58.581Z,48.80
2023-01-25T10:26:28.458Z,48.60
2023-01-25T10:29:15.999Z,48.50
2023-01-25T10:31:45.580Z,48.40
2023-01-25T10:34:26.674Z,49.20
2023-01-25T10:37:00.529Z,48.80
2023-01-25T10:39:30.400Z,48.90
2023-01-25T10:42:05.039Z,49.40
2023-01-25T10:44:34.616Z,49.80
2023-01-25T10:47:09.105Z,49.50
2023-01-25T10:49:50.888Z,49.40
2023-01-25T10:52:20.643Z,49.70
2023-01-25T10:54:53.668Z,49.60
2023-01-25T10:57:24.827Z,50.30
2023-01-25T10:59:54.945Z,50.70
2023-01-25T11:02:40.550Z,50.90
2023-01-25T11:05:30.347Z,51.30
2023-01-25T11:08:00.535Z,51.50
2023-01-25T11:10:29.964Z,52.00
2023-01-25T11:25:33.185Z,53.20
2023-01-25T11:28:20.777Z,53.10
2023-01-25T11:30:50.957Z,53.10
2023-01-25T11:33:21.329Z,53.10
2023-01-25T11:36:09.111Z,53.70
2023-01-25T11:38:39.855Z,53.70
2023-01-25T11:41:15.678Z,53.80
2023-01-25T11:43:45.470Z,53.80
2023-01-25T11:46:14.867Z,54.00
2023-01-25T11:48:45.564Z,54.10
2023-01-25T11:51:15.688Z,54.00
2023-01-25T11:54:03.511Z,54.30
2023-01-25T11:56:41.740Z,54.60
2023-01-25T11:59:17.390Z,54.60
2023-01-25T12:01:58.010Z,54.90
2023-01-25T12:04:33.488Z,55.10
2023-01-25T12:07:13.043Z,55.10
2023-01-25T12:09:45.607Z,55.20
2023-01-25T12:12:21.373Z,55.30
2023-01-25T12:14:57.419Z,55.30
2023-01-25T12:17:45.046Z,55.00
2023-01-25T12:20:33.495Z,54.60
2023-01-25T14:08:15.273Z,64.70
2023-01-25T14:10:46.212Z,65.00
2023-01-25T14:13:16.577Z,65.50
2023-01-25T14:15:56.571Z,65.40
2023-01-25T14:18:30.159Z,65.90
2023-01-25T14:21:34.869Z,65.70
2023-01-25T14:24:13.789Z,66.00
2023-01-25T14:26:43.642Z,66.20
2023-01-25T14:29:36.416Z,66.90
2023-01-25T14:32:06.409Z,66.90
2023-01-25T14:34:35.854Z,66.70
2023-01-25T14:37:16.075Z,66.70
2023-01-25T14:39:46.688Z,67.10
2023-01-25T14:42:17.010Z,67.50
2023-01-25T14:44:46.863Z,67.60
2023-01-25T14:47:26.343Z,67.90
2023-01-25T14:49:56.022Z,67.50
2023-01-25T14:52:28.760Z,67.40
2023-01-25T14:55:02.208Z,67.60
2023-01-25T14:57:42.000Z,67.40
2023-01-25T15:00:20.503Z,66.70
2023-01-25T15:02:51.889Z,66.40
2023-01-25T15:05:25.638Z,66.50
2023-01-25T15:10:55.916Z,67.30
2023-01-25T15:13:25.390Z,67.90
2023-01-25T15:16:06.678Z,67.60
2023-01-25T15:18:55.705Z,68.00
2023-01-25T15:21:29.471Z,68.10
2023-01-25T15:24:00.033Z,68.00
2023-01-25T15:26:30.685Z,67.90
2023-01-25T15:29:13.501Z,68.00
2023-01-25T15:31:43.740Z,68.10
2023-01-25T15:34:21.902Z,68.10
2023-01-25T15:36:51.574Z,68.10
2023-01-25T15:39:21.648Z,68.30
2023-01-25T15:41:51.054Z,68.70
2023-01-25T15:44:21.921Z,69.30
2023-01-25T15:46:52.436Z,68.90
2023-01-25T15:49:28.657Z,69.30
2023-01-25T15:51:58.351Z,69.30
2023-01-25T15:54:28.009Z,69.40
2023-01-25T15:56:58.470Z,69.40
2023-01-25T15:59:28.731Z,69.80
2023-01-25T16:01:58.451Z,70.00
2023-01-25T16:04:27.967Z,70.20
2023-01-25T16:06:57.513Z,69.90
2023-01-25T16:09:28.756Z,70.10
2023-01-25T20:22:04.365Z,76.20
2023-01-25T20:24:34.274Z,76.30
2023-01-25T20:27:04.498Z,76.40
2023-01-25T20:29:34.536Z,76.40
2023-01-25T20:32:05.521Z,76.50
2023-01-25T20:34:36.235Z,76.60
2023-01-25T20:37:05.692Z,76.30
2023-01-25T20:39:36.355Z,75.80
2023-01-25T20:42:06.190Z,75.60
2023-01-25T20:44:36.091Z,75.00
2023-01-25T20:47:06.974Z,74.30
2023-01-25T20:49:37.980Z,74.50
2023-01-25T20:52:09.116Z,74.40
2023-01-25T20:54:40.249Z,74.40
2023-01-25T20:57:10.525Z,75.00
2023-01-25T20:59:40.346Z,74.70
2023-01-25T21:02:11.753Z,75.10
2023-01-25T21:04:41.262Z,74.80
2023-01-25T21:07:10.653Z,74.40
2023-01-25T21:09:42.817Z,74.40
2023-01-25T21:12:12.792Z,74.20
2023-01-25T21:14:42.213Z,74.00
2023-01-25T21:17:13.074Z,74.50
2023-01-25T21:19:42.458Z,74.20
2023-01-25T21:22:11.931Z,74.90
2023-01-25T21:24:41.775Z,74.90
2023-01-25T21:27:11.156Z,74.70
2023-01-25T21:29:41.059Z,74.30
2023-01-25T21:32:10.487Z,73.40
2023-01-25T21:34:40.254Z,72.60
2023-01-25T21:37:09.705Z,72.00
2023-01-25T21:39:39.487Z,71.70
2023-01-25T21:42:08.909Z,71.10
2023-01-25T21:45:01.900Z,70.20
2023-01-25T21:47:34.980Z,69.60
2023-01-25T21:50:23.565Z,69.80
2023-01-25T21:52:53.383Z,69.50
2023-01-25T21:55:23.191Z,69.10
2023-01-25T21:57:52.976Z,68.70
2023-01-25T22:00:23.169Z,68.90
2023-01-25T22:09:49.172Z,67.40
2023-01-25T22:12:19.737Z,66.80
2023-01-25T22:14:49.207Z,66.30
2023-01-25T22:17:20.467Z,66.40
2023-01-25T22:19:51.099Z,65.90
2023-01-25T22:22:20.520Z,65.80
2023-01-25T22:24:50.145Z,65.10
2023-01-25T22:27:19.553Z,64.90
2023-01-25T22:29:49.023Z,65.00
2023-01-25T22:32:18.492Z,64.80
2023-01-25T22:34:47.925Z,65.00
2023-01-25T22:37:17.338Z,65.30
2023-01-25T22:39:47.143Z,64.60
2023-01-25T22:42:16.971Z,64.30
2023-01-25T22:44:46.804Z,64.30
2023-01-25T22:47:16.289Z,64.10
2023-01-25T22:49:45.740Z,63.80
2023-01-25T22:52:15.191Z,63.80
2023-01-25T22:54:44.836Z,63.30
2023-01-25T22:57:14.849Z,62.80
2023-01-25T22:59:44.261Z,61.70
2023-01-25T23:02:13.822Z,61.10
2023-01-25T23:04:43.268Z,60.40
2023-01-25T23:07:20.531Z,59.50
